Terminal Aerodrome Forecast
Issued by NWS

Home | Current Version | Previous Version | Text Only | Print | Product List | Glossary On
Versions: 1 2 3 4 5 6 7 8 9 10 11 12 13 14 15 16 17 18 19 20 21 22 23
362
FTUS43 KABR 202339
TAFPIR
TAF
KPIR 202339Z 2100/2124 30006KT P6SM SKC
      TEMPO 2100/2102 2SM BR BKN015
     FM210200 VRB03KT 1/2SM FZFG BKN010
     FM210800 27004KT 1/2SM FZFG OVC003
     FM211300 30004KT P6SM OVC006
     FM211600 29005KT P6SM OVC008=

USA.gov is the U.S. government's official web portal to all federal, state and local government web resources and services.